Time;durP1;ratioP1;P1;durP2;ratioP2;P2;SDS_P1;SDS_P2;PMS_P1;PMS_P2;Temp;Humidity;BMP_temperature;BMP_pressure;BME280_temperature;BME280_humidity;BME280_pressure;Samples;Min_cycle;Max_cycle;Signal;HPM_P1;HPM_P2
2021/06/28 00:00:36;;;;;;;5.22;4.82;;;;;;;17.75;39.24;101130.34;4823746;29;100788;-69
2021/06/28 00:03:05;;;;;;;4.88;4.47;;;;;;;17.70;39.32;101129.47;4800439;29;97388;-70
2021/06/28 00:05:33;;;;;;;5.38;4.97;;;;;;;17.81;38.96;101128.53;4822859;29;97002;-70
2021/06/28 00:08:03;;;;;;;5.32;4.93;;;;;;;17.78;38.93;101130.34;4822475;29;98785;-70
2021/06/28 00:10:32;;;;;;;5.85;5.35;;;;;;;17.72;39.11;101130.34;4824512;29;99327;-70
2021/06/28 00:13:05;;;;;;;5.45;5.05;;;;;;;17.69;39.09;101128.56;4814098;29;97345;-70
2021/06/28 00:15:37;;;;;;;6.40;5.20;;;;;;;17.70;39.21;101121.38;4824616;29;98337;-70
2021/06/28 00:18:09;;;;;;;5.78;5.22;;;;;;;17.67;39.10;101127.69;4824509;29;100527;-70
2021/06/28 00:20:37;;;;;;;5.30;4.80;;;;;;;17.67;39.23;101126.78;4826730;29;98787;-70
2021/06/28 00:23:05;;;;;;;5.30;4.90;;;;;;;17.63;39.35;101120.53;4825231;29;97043;-70
2021/06/28 00:25:33;;;;;;;5.40;4.90;;;;;;;17.60;39.38;101119.63;4820285;29;97243;-71
2021/06/28 00:28:02;;;;;;;6.13;5.45;;;;;;;17.56;39.38;101124.13;4824688;29;97881;-70
2021/06/28 00:30:32;;;;;;;6.70;5.18;;;;;;;17.61;39.42;101122.31;4825142;29;98731;-69
2021/06/28 00:33:00;;;;;;;5.40;4.97;;;;;;;17.53;39.41;101121.44;4807108;29;97033;-70
2021/06/28 00:35:29;;;;;;;7.28;5.95;;;;;;;17.91;39.07;101122.22;4822824;29;97280;-70
2021/06/28 00:37:57;;;;;;;5.90;5.40;;;;;;;17.68;39.40;101117.81;4823366;29;97771;-70
2021/06/28 00:40:25;;;;;;;5.43;5.03;;;;;;;17.63;39.48;101116.94;4826078;29;97663;-70
2021/06/28 00:42:53;;;;;;;5.65;5.15;;;;;;;17.60;39.50;101122.31;4825095;29;97537;-70
2021/06/28 00:45:23;;;;;;;5.43;4.93;;;;;;;17.59;39.56;101118.72;4824105;29;97442;-69
2021/06/28 00:47:52;;;;;;;5.65;5.15;;;;;;;17.56;39.27;101118.75;4825711;28;97171;-70
2021/06/28 00:50:22;;;;;;;5.53;5.13;;;;;;;17.60;39.38;101115.13;4824208;29;98344;-71
2021/06/28 00:52:53;;;;;;;4.72;4.32;;;;;;;17.60;39.19;101115.13;4826102;29;97388;-70
2021/06/28 00:55:22;;;;;;;6.05;4.85;;;;;;;17.59;39.39;101113.34;4839885;28;97943;-70
2021/06/28 00:57:50;;;;;;;5.10;4.60;;;;;;;17.60;39.33;101114.25;4809481;29;99400;-70
2021/06/28 01:00:19;;;;;;;6.18;5.70;;;;;;;18.00;39.04;101111.41;4807290;29;99762;-71
2021/06/28 01:02:48;;;;;;;5.75;5.25;;;;;;;18.17;38.92;101113.19;4822602;29;97040;-70
2021/06/28 01:05:17;;;;;;;6.13;5.43;;;;;;;18.26;38.72;101115.84;4824465;29;97197;-70
2021/06/28 01:07:46;;;;;;;5.05;4.65;;;;;;;17.95;39.06;101110.53;4820523;29;99497;-70
2021/06/28 01:10:16;;;;;;;5.22;4.78;;;;;;;17.83;39.24;101113.28;4823120;29;100529;-70
2021/06/28 01:12:45;;;;;;;5.43;4.95;;;;;;;17.72;39.47;101112.41;4823635;29;97517;-70
2021/06/28 01:15:13;;;;;;;5.70;5.30;;;;;;;18.20;38.93;101118.56;4805689;29;98229;-69
2021/06/28 01:17:41;;;;;;;4.60;4.30;;;;;;;17.95;39.42;101110.53;4823133;29;97690;-69
2021/06/28 01:20:11;;;;;;;6.00;5.50;;;;;;;18.30;39.20;101104.09;4824924;29;98877;-69
2021/06/28 01:22:41;;;;;;;7.00;5.13;;;;;;;18.03;39.63;101099.72;4824737;29;97609;-70
2021/06/28 01:25:12;;;;;;;5.60;5.20;;;;;;;17.93;39.98;101103.34;4824266;29;97004;-69
2021/06/28 01:27:41;;;;;;;5.15;4.78;;;;;;;17.87;40.00;101096.22;4836967;28;99511;-69
2021/06/28 01:30:12;;;;;;;5.28;4.88;;;;;;;17.79;40.18;101092.66;4808091;29;99173;-70
2021/06/28 01:32:42;;;;;;;5.25;4.85;;;;;;;17.79;40.01;101091.75;4825689;29;97857;-70
2021/06/28 01:35:11;;;;;;;4.82;4.45;;;;;;;17.77;40.13;101083.69;4823551;29;98335;-70
2021/06/28 01:37:38;;;;;;;5.03;4.63;;;;;;;17.74;40.26;101093.56;4824728;29;100108;-69
2021/06/28 01:40:11;;;;;;;5.90;5.30;;;;;;;17.71;40.17;101086.38;4808684;29;99265;-70
2021/06/28 01:42:39;;;;;;;5.25;4.80;;;;;;;17.67;40.23;101092.72;4825462;29;97866;-70
2021/06/28 01:45:09;;;;;;;5.80;4.95;;;;;;;17.64;40.42;101090.00;4824750;29;97925;-70
2021/06/28 01:47:38;;;;;;;5.35;4.93;;;;;;;17.62;40.45;101086.41;4805572;29;99815;-70
2021/06/28 01:50:08;;;;;;;5.35;4.85;;;;;;;17.60;40.34;101087.34;4809189;29;99277;-69
2021/06/28 01:52:36;;;;;;;5.10;4.80;;;;;;;17.62;40.45;101082.84;4823814;29;96986;-69
2021/06/28 01:55:07;;;;;;;5.65;5.10;;;;;;;17.61;40.28;101086.44;4824763;29;97985;-69
2021/06/28 01:57:37;;;;;;;5.47;4.90;;;;;;;17.59;40.21;101082.84;4821291;29;99702;-70
2021/06/28 02:00:05;;;;;;;5.72;5.20;;;;;;;17.58;40.45;101084.63;4839633;28;100511;-70
2021/06/28 02:02:33;;;;;;;5.47;4.97;;;;;;;17.56;40.33;101077.47;4822394;29;96806;-69
2021/06/28 02:05:01;;;;;;;5.00;4.60;;;;;;;17.54;40.41;101077.50;4825041;29;97108;-68
2021/06/28 02:07:28;;;;;;;5.40;5.00;;;;;;;17.53;40.44;101086.44;4821796;29;99745;-70
2021/06/28 02:09:56;;;;;;;6.23;5.73;;;;;;;17.92;40.73;101071.97;4821766;29;97276;-69
2021/06/28 02:12:25;;;;;;;5.03;4.63;;;;;;;17.69;40.83;101073.84;4822939;29;97113;-69
2021/06/28 02:14:54;;;;;;;6.13;5.53;;;;;;;17.63;40.77;101074.78;4823979;29;96717;-69
2021/06/28 02:17:22;;;;;;;5.70;5.20;;;;;;;17.99;40.42;101065.63;4820592;29;100423;-69
2021/06/28 02:19:50;;;;;;;5.35;4.90;;;;;;;17.74;40.82;101067.56;4805788;29;100561;-70
2021/06/28 02:22:17;;;;;;;5.45;5.05;;;;;;;17.68;40.68;101066.66;4824052;29;96894;-69
2021/06/28 02:24:45;;;;;;;5.63;5.13;;;;;;;17.63;40.71;101066.69;4823471;29;97978;-70
2021/06/28 02:27:13;;;;;;;5.50;4.70;;;;;;;17.58;40.64;101060.41;4820605;29;99301;-71
2021/06/28 02:29:41;;;;;;;5.40;4.95;;;;;;;17.54;40.64;101060.44;4806159;29;100330;-70
2021/06/28 02:32:10;;;;;;;5.20;4.80;;;;;;;17.51;40.49;101065.84;4823761;29;96907;-69
2021/06/28 02:34:38;;;;;;;5.35;4.95;;;;;;;17.46;40.58;101067.63;4822598;29;97925;-69
2021/06/28 02:37:05;;;;;;;5.18;4.78;;;;;;;17.42;40.46;101079.31;4819540;29;98507;-70
2021/06/28 02:39:33;;;;;;;5.07;4.68;;;;;;;17.39;40.46;101069.44;4823116;29;99181;-69
2021/06/28 02:42:01;;;;;;;4.88;4.47;;;;;;;17.37;40.40;101071.22;4838602;28;97782;-68
2021/06/28 02:44:29;;;;;;;5.00;4.55;;;;;;;17.37;40.40;101065.81;4824290;29;97163;-69
2021/06/28 02:46:56;;;;;;;5.07;4.57;;;;;;;17.35;40.36;101067.63;4821735;29;97764;-69
2021/06/28 02:49:26;;;;;;;5.07;4.63;;;;;;;17.34;40.12;101068.53;4822597;29;98865;-69
2021/06/28 02:51:53;;;;;;;5.43;4.85;;;;;;;17.36;40.11;101071.22;4823994;29;96881;-69
2021/06/28 02:54:22;;;;;;;5.75;5.25;;;;;;;17.74;39.39;101074.72;4820618;29;97358;-69
2021/06/28 02:56:49;;;;;;;6.03;5.47;;;;;;;17.87;38.83;101074.69;4804661;29;99620;-69
2021/06/28 02:59:17;;;;;;;12.15;10.80;;;;;;;17.58;39.46;101079.25;4824190;29;98950;-69
2021/06/28 03:01:45;;;;;;;32.28;27.50;;;;;;;17.50;39.71;101082.88;4821819;29;97943;-70
2021/06/28 03:04:13;;;;;;;45.25;39.20;;;;;;;17.84;38.78;101073.78;4819653;29;96973;-72
2021/06/28 03:06:42;;;;;;;11.10;10.02;;;;;;;17.97;38.91;101081.81;4804047;29;99301;-70
2021/06/28 03:09:10;;;;;;;7.43;6.70;;;;;;;17.91;38.72;101081.81;4805586;29;101286;-72
2021/06/28 03:11:38;;;;;;;8.10;7.38;;;;;;;18.04;38.81;101080.00;4821348;28;98636;-71
2021/06/28 03:14:06;;;;;;;7.55;6.55;;;;;;;18.14;38.83;101084.44;4804808;29;97508;-71
2021/06/28 03:16:34;;;;;;;9.13;8.32;;;;;;;18.18;38.98;101083.53;4820296;29;98197;-71
2021/06/28 03:19:02;;;;;;;7.33;6.73;;;;;;;18.23;38.80;101089.78;4821999;29;101456;-71
2021/06/28 03:21:30;;;;;;;7.03;6.28;;;;;;;18.27;38.75;101087.97;4821283;29;97233;-71
2021/06/28 03:23:59;;;;;;;6.43;5.85;;;;;;;18.31;38.84;101092.44;4821852;29;97414;-72
2021/06/28 03:26:27;;;;;;;6.90;6.30;;;;;;;18.35;39.19;101102.31;4805127;29;101224;-71
2021/06/28 03:28:55;;;;;;;10.33;6.00;;;;;;;18.38;39.23;101102.28;4820444;29;100409;-72
2021/06/28 03:31:23;;;;;;;6.50;5.88;;;;;;;18.40;39.70;101093.28;4805828;29;98122;-71
2021/06/28 03:33:50;;;;;;;7.40;6.63;;;;;;;18.43;40.03;101093.25;4825867;29;97373;-71
2021/06/28 03:36:18;;;;;;;5.78;5.28;;;;;;;18.45;39.99;101088.75;4823593;29;100287;-71
2021/06/28 03:38:46;;;;;;;6.40;5.80;;;;;;;18.48;39.68;101094.13;4823280;29;99581;-72
2021/06/28 03:41:15;;;;;;;6.18;5.57;;;;;;;18.48;39.69;101104.91;4825088;29;97878;-71
2021/06/28 03:43:43;;;;;;;5.90;5.40;;;;;;;18.50;40.08;101097.72;4824722;29;97860;-71
2021/06/28 03:46:11;;;;;;;6.13;5.60;;;;;;;18.51;40.31;101104.00;4821913;29;99243;-71
2021/06/28 03:48:39;;;;;;;6.90;5.50;;;;;;;18.51;39.78;101110.28;4812913;29;99306;-71
2021/06/28 03:51:07;;;;;;;5.85;5.45;;;;;;;18.51;40.15;101110.28;4823326;29;97332;-71
2021/06/28 03:53:35;;;;;;;6.00;5.50;;;;;;;18.51;40.37;101109.41;4825049;29;97603;-71
2021/06/28 03:56:07;;;;;;;6.00;5.50;;;;;;;18.52;40.95;101100.38;4822201;29;98467;-71
2021/06/28 03:58:38;;;;;;;6.03;5.53;;;;;;;18.51;40.84;101102.22;4828838;29;98587;-72
2021/06/28 04:01:06;;;;;;;6.30;5.45;;;;;;;18.53;40.68;101103.06;4826223;29;98315;-72
2021/06/28 04:03:37;;;;;;;5.28;4.88;;;;;;;18.15;41.36;101099.69;4829960;29;97193;-72
2021/06/28 04:06:07;;;;;;;6.20;5.60;;;;;;;17.99;41.32;101090.78;4829026;29;97626;-72
2021/06/28 04:08:36;;;;;;;5.60;5.15;;;;;;;18.31;40.83;101087.97;4828225;29;97868;-71
2021/06/28 04:11:05;;;;;;;6.35;5.85;;;;;;;18.38;41.19;101083.41;4817867;29;97147;-72
2021/06/28 04:13:33;;;;;;;6.07;5.47;;;;;;;18.42;41.36;101082.50;4827787;29;97229;-71
2021/06/28 04:16:02;;;;;;;9.75;5.55;;;;;;;18.05;41.79;101076.41;4830302;29;98234;-73
2021/06/28 04:18:31;;;;;;;6.68;5.18;;;;;;;17.88;41.68;101065.69;4829502;29;98099;-72
2021/06/28 04:20:59;;;;;;;21.10;16.50;;;;;;;18.19;40.56;101071.84;4813066;29;97476;-73
2021/06/28 04:23:26;;;;;;;15.75;13.15;;;;;;;18.26;40.19;101075.41;4827717;29;98197;-72
2021/06/28 04:25:54;;;;;;;14.63;10.90;;;;;;;18.29;40.10;101070.00;4808897;28;100366;-73
2021/06/28 04:28:23;;;;;;;7.90;6.47;;;;;;;17.91;40.63;101070.19;4824863;29;99307;-72
2021/06/28 04:30:51;;;;;;;6.03;5.40;;;;;;;17.75;40.96;101061.25;4823787;29;96918;-72
2021/06/28 04:33:20;;;;;;;28.88;21.35;;;;;;;17.68;40.98;101066.66;4823178;29;97395;-72
2021/06/28 04:35:48;;;;;;;19.13;15.15;;;;;;;17.61;41.34;101065.81;4820191;29;99526;-72
2021/06/28 04:38:16;;;;;;;12.85;9.93;;;;;;;17.97;40.49;101060.25;4820296;29;100539;-73
2021/06/28 04:40:45;;;;;;;8.05;7.25;;;;;;;18.06;40.19;101067.44;4822713;29;97351;-72
2021/06/28 04:43:14;;;;;;;16.13;13.52;;;;;;;17.74;40.72;101072.94;4822727;29;96818;-72
2021/06/28 04:45:42;;;;;;;9.10;8.20;;;;;;;17.66;40.90;101069.38;4824124;29;97697;-72
2021/06/28 04:48:10;;;;;;;9.98;8.27;;;;;;;17.61;40.81;101067.59;4820779;29;99175;-72
2021/06/28 04:50:39;;;;;;;8.45;6.28;;;;;;;17.56;40.91;101072.09;4825352;29;96759;-72
2021/06/28 04:53:07;;;;;;;7.22;6.55;;;;;;;17.50;40.78;101078.38;4839017;28;97514;-70
2021/06/28 04:55:35;;;;;;;10.00;6.57;;;;;;;17.47;40.96;101067.66;4824633;29;98000;-72
2021/06/28 04:58:03;;;;;;;7.05;6.35;;;;;;;17.43;41.05;101070.34;4824155;29;97680;-72
2021/06/28 05:00:31;;;;;;;6.40;5.80;;;;;;;17.41;40.99;101064.97;4824156;29;97204;-71
2021/06/28 05:02:59;;;;;;;7.23;6.40;;;;;;;17.78;40.53;101066.63;4822651;29;98381;-72
2021/06/28 05:05:27;;;;;;;7.90;7.10;;;;;;;17.93;40.50;101071.03;4823828;29;98047;-71
2021/06/28 05:07:56;;;;;;;6.68;6.10;;;;;;;17.99;40.30;101071.91;4821712;29;99660;-71
2021/06/28 05:10:24;;;;;;;6.10;5.60;;;;;;;17.84;40.67;101066.59;4823661;29;97346;-71
2021/06/28 05:12:52;;;;;;;6.07;5.43;;;;;;;17.80;40.54;101077.41;4821344;29;97285;-71
2021/06/28 05:15:20;;;;;;;6.45;5.93;;;;;;;18.05;40.36;101076.41;4819744;29;99410;-71
2021/06/28 05:17:48;;;;;;;6.40;5.88;;;;;;;18.22;40.12;101085.31;4819867;29;97523;-71
2021/06/28 05:20:16;;;;;;;6.53;5.93;;;;;;;18.08;40.31;101086.25;4816284;29;98238;-72
2021/06/28 05:22:44;;;;;;;7.90;5.57;;;;;;;17.70;41.06;101086.41;4822719;29;98291;-72
2021/06/28 05:25:14;;;;;;;5.43;5.03;;;;;;;17.62;41.22;101085.53;4805342;29;98628;-72
2021/06/28 05:27:42;;;;;;;6.78;5.82;;;;;;;17.59;41.23;101094.50;4822588;29;97357;-72
2021/06/28 05:30:14;;;;;;;6.00;5.50;;;;;;;17.57;41.42;101093.63;4820503;29;97742;-72
2021/06/28 05:32:42;;;;;;;6.28;5.68;;;;;;;17.57;41.10;101099.00;4837667;28;97387;-72
2021/06/28 05:35:10;;;;;;;6.18;5.60;;;;;;;17.56;41.43;101097.22;4822182;29;99061;-72
2021/06/28 05:37:39;;;;;;;8.45;5.80;;;;;;;17.57;41.27;101099.00;4821151;29;98832;-72
2021/06/28 05:40:09;;;;;;;6.15;5.15;;;;;;;17.57;41.37;101090.91;4823001;29;97521;-72
2021/06/28 05:42:39;;;;;;;6.32;5.70;;;;;;;17.55;41.36;101100.78;4823340;29;98078;-71
2021/06/28 05:45:08;;;;;;;6.10;5.60;;;;;;;17.56;41.24;101099.00;4822657;29;99530;-72
2021/06/28 05:47:36;;;;;;;6.35;5.80;;;;;;;17.56;41.24;101102.59;4818309;29;99283;-72
2021/06/28 05:50:04;;;;;;;6.47;5.88;;;;;;;17.59;41.33;101107.06;4821811;29;96894;-72
2021/06/28 05:52:33;;;;;;;7.53;6.80;;;;;;;17.95;41.15;101097.06;4822673;29;97752;-72
2021/06/28 05:55:01;;;;;;;6.53;5.93;;;;;;;17.79;41.56;101106.13;4821594;29;98069;-72
2021/06/28 05:57:30;;;;;;;6.68;6.07;;;;;;;17.75;41.22;101109.72;4822974;29;100803;-72
2021/06/28 05:59:59;;;;;;;7.20;6.50;;;;;;;18.10;40.28;101108.69;4805623;29;97195;-72
2021/06/28 06:02:28;;;;;;;6.65;6.13;;;;;;;17.88;40.80;101110.56;4822397;29;97683;-72
2021/06/28 06:04:55;;;;;;;7.68;6.97;;;;;;;18.20;40.33;101105.06;4807019;29;99895;-71
2021/06/28 06:07:23;;;;;;;7.05;6.47;;;;;;;17.98;40.79;101107.81;4823066;29;99706;-72
2021/06/28 06:09:51;;;;;;;6.55;6.03;;;;;;;17.93;40.76;101100.66;4808353;29;96895;-71
2021/06/28 06:12:19;;;;;;;7.30;6.70;;;;;;;17.92;40.86;101099.78;4823494;29;96963;-72
2021/06/28 06:14:47;;;;;;;6.35;5.85;;;;;;;17.93;41.01;101104.25;4824700;29;97731;-72
2021/06/28 06:17:16;;;;;;;6.70;5.80;;;;;;;17.94;40.89;101106.06;4838333;28;100735;-72
2021/06/28 06:19:44;;;;;;;8.82;6.72;;;;;;;17.93;40.97;101111.44;4810010;29;97355;-72
2021/06/28 06:22:12;;;;;;;7.75;6.80;;;;;;;17.95;40.92;101118.59;4823927;29;97995;-72
2021/06/28 06:24:40;;;;;;;8.35;7.32;;;;;;;17.98;40.80;101115.03;4823572;29;97650;-72
2021/06/28 06:27:08;;;;;;;8.93;6.22;;;;;;;18.01;40.83;101099.75;4824389;29;100845;-72
2021/06/28 06:29:36;;;;;;;7.00;6.28;;;;;;;18.08;40.63;101102.44;4823692;29;97378;-72
2021/06/28 06:32:05;;;;;;;7.18;6.32;;;;;;;18.12;40.66;101096.13;4821424;29;97392;-70
2021/06/28 06:34:34;;;;;;;7.32;6.63;;;;;;;18.13;40.70;101097.94;4821269;29;99754;-72
2021/06/28 06:37:02;;;;;;;6.35;5.78;;;;;;;18.17;40.64;101099.72;4820203;29;99298;-72
2021/06/28 06:39:31;;;;;;;7.90;6.75;;;;;;;18.23;40.58;101103.25;4822342;29;97281;-73
2021/06/28 06:41:59;;;;;;;7.80;7.10;;;;;;;18.29;40.34;101094.25;4822712;29;98064;-72
2021/06/28 06:44:26;;;;;;;11.20;10.10;;;;;;;18.34;40.38;101100.50;4820928;29;99704;-71
2021/06/28 06:46:54;;;;;;;8.68;7.88;;;;;;;18.41;40.31;101099.56;4821480;29;99482;-72
2021/06/28 06:49:22;;;;;;;8.48;7.68;;;;;;;18.45;40.45;101106.72;4823115;29;98332;-73
2021/06/28 06:51:52;;;;;;;9.05;8.15;;;;;;;18.50;40.41;101107.59;4823313;29;96872;-72
2021/06/28 06:54:20;;;;;;;8.52;7.65;;;;;;;18.54;40.20;101115.66;4808581;29;100160;-73
2021/06/28 06:56:48;;;;;;;7.47;6.82;;;;;;;18.59;40.04;101112.91;4822019;29;97713;-72
2021/06/28 06:59:16;;;;;;;8.48;6.70;;;;;;;18.61;40.32;101111.09;4804984;29;97181;-73
2021/06/28 07:01:44;;;;;;;8.60;6.45;;;;;;;18.66;40.17;101115.56;4821020;29;98180;-73
2021/06/28 07:04:14;;;;;;;7.63;6.70;;;;;;;18.72;40.19;101115.56;4820313;29;100468;-73
2021/06/28 07:06:42;;;;;;;7.60;6.93;;;;;;;18.79;39.83;101127.19;4819972;29;101309;-73
2021/06/28 07:09:16;;;;;;;7.93;7.20;;;;;;;18.85;40.10;101121.75;4806905;29;97071;-72
2021/06/28 07:11:44;;;;;;;7.40;6.72;;;;;;;18.91;39.79;101121.72;4806338;29;97153;-73
2021/06/28 07:14:12;;;;;;;8.23;7.35;;;;;;;18.95;39.76;101124.38;4820885;29;99289;-72
2021/06/28 07:16:40;;;;;;;10.75;8.93;;;;;;;19.01;39.83;101115.34;4820973;29;100732;-73
2021/06/28 07:19:08;;;;;;;12.07;10.70;;;;;;;19.06;39.56;101110.81;4836602;28;97316;-73
2021/06/28 07:21:37;;;;;;;9.73;8.77;;;;;;;19.11;39.90;101116.16;4835547;28;97306;-73
2021/06/28 07:24:06;;;;;;;7.95;7.15;;;;;;;19.15;39.87;101110.75;4817624;29;98696;-73
2021/06/28 07:26:35;;;;;;;7.57;6.25;;;;;;;19.20;39.89;101113.38;4820487;29;99228;-72
2021/06/28 07:29:03;;;;;;;6.40;5.75;;;;;;;19.24;39.47;101116.06;4821045;29;97435;-72
2021/06/28 07:31:31;;;;;;;6.65;5.97;;;;;;;19.29;39.62;101114.19;4806037;29;98104;-72
2021/06/28 07:33:59;;;;;;;7.32;6.70;;;;;;;19.36;39.66;101115.06;4821092;29;98001;-72
2021/06/28 07:36:27;;;;;;;6.50;5.85;;;;;;;19.42;39.03;101104.22;4820797;29;99323;-73
2021/06/28 07:38:56;;;;;;;5.57;5.07;;;;;;;19.49;39.36;101112.22;4821010;29;97773;-73
2021/06/28 07:41:24;;;;;;;7.65;6.22;;;;;;;19.54;39.19;101109.47;4821252;29;97311;-72
2021/06/28 07:43:53;;;;;;;6.53;5.93;;;;;;;19.58;39.10;101109.44;4823136;29;96913;-73
2021/06/28 07:46:22;;;;;;;6.00;5.18;;;;;;;19.64;38.89;101100.38;4820915;29;99568;-72
2021/06/28 07:48:50;;;;;;;6.10;5.60;;;;;;;19.70;38.57;101097.63;4822194;29;96823;-72
2021/06/28 07:51:18;;;;;;;6.20;5.63;;;;;;;19.76;38.33;101106.53;4821827;29;97645;-72
2021/06/28 07:53:46;;;;;;;5.60;5.10;;;;;;;19.82;38.24;101098.38;4822993;29;97800;-72
2021/06/28 07:56:18;;;;;;;6.03;5.15;;;;;;;19.87;38.40;101088.38;4822268;29;101028;-72
2021/06/28 07:58:47;;;;;;;6.00;5.50;;;;;;;19.92;38.30;101089.25;4824345;29;97150;-72
2021/06/28 08:01:18;;;;;;;6.35;5.70;;;;;;;19.95;38.36;101088.34;4805506;29;97699;-72
2021/06/28 08:03:47;;;;;;;6.20;5.68;;;;;;;19.99;38.13;101087.38;4819955;29;99805;-71
2021/06/28 08:06:16;;;;;;;6.80;6.20;;;;;;;20.01;38.05;101082.81;4819451;29;99522;-72
2021/06/28 08:08:44;;;;;;;9.70;8.75;;;;;;;20.05;37.83;101089.13;4822552;29;98033;-73
2021/06/28 08:11:13;;;;;;;6.55;5.97;;;;;;;20.09;37.52;101083.63;4821873;29;97488;-73
2021/06/28 08:13:42;;;;;;;5.47;4.88;;;;;;;20.12;37.60;101078.19;4822868;29;98131;-73
2021/06/28 08:16:10;;;;;;;13.57;11.38;;;;;;;20.16;37.75;101076.31;4823166;29;97633;-72
2021/06/28 08:18:42;;;;;;;8.75;7.53;;;;;;;20.22;37.33;101074.44;4808534;29;96955;-72
2021/06/28 08:21:30;;;;;;;6.90;6.20;;;;;;;20.28;37.19;101078.88;4824251;29;98027;-72
2021/06/28 08:23:58;;;;;;;5.82;5.38;;;;;;;20.32;37.01;101081.50;4824192;29;97321;-72
2021/06/28 08:26:26;;;;;;;5.10;4.70;;;;;;;20.38;36.83;101069.72;4822647;29;97698;-72
2021/06/28 08:28:54;;;;;;;7.55;5.70;;;;;;;20.44;37.00;101075.03;4821767;29;97319;-72
2021/06/28 08:31:22;;;;;;;9.18;7.47;;;;;;;20.47;37.02;101070.47;4839187;28;98017;-72
2021/06/28 08:34:11;;;;;;;18.73;15.25;;;;;;;20.55;36.79;101068.59;4809031;29;99560;-72
2021/06/28 08:36:39;;;;;;;11.93;7.72;;;;;;;20.62;36.54;101070.28;4822839;29;98074;-72
2021/06/28 08:39:10;;;;;;;7.40;6.30;;;;;;;20.67;36.48;101067.47;4824488;29;96888;-72
2021/06/28 08:41:39;;;;;;;7.47;6.80;;;;;;;20.74;36.70;101066.50;4824712;29;96796;-71
2021/06/28 08:44:08;;;;;;;7.07;5.95;;;;;;;20.82;36.50;101061.84;4824858;29;97744;-72
2021/06/28 08:46:37;;;;;;;8.35;7.47;;;;;;;20.87;36.41;101062.63;4824327;29;98684;-72
2021/06/28 08:49:05;;;;;;;6.78;6.18;;;;;;;20.94;36.17;101056.25;4827242;29;97337;-72
2021/06/28 08:51:35;;;;;;;8.93;8.10;;;;;;;21.03;36.43;101055.16;4823509;29;97660;-72
2021/06/28 08:54:07;;;;;;;8.23;7.43;;;;;;;21.10;36.35;101052.34;4825985;29;97982;-72
2021/06/28 08:56:35;;;;;;;7.78;7.07;;;;;;;21.17;36.08;101042.31;4797137;29;99603;-72
2021/06/28 08:59:04;;;;;;;8.25;7.05;;;;;;;21.22;36.36;101041.31;4827201;29;98208;-72
2021/06/28 09:01:32;;;;;;;8.25;7.53;;;;;;;21.28;35.56;101046.63;4826958;29;97936;-72
2021/06/28 09:04:00;;;;;;;7.78;7.18;;;;;;;21.36;36.00;101049.19;4823285;29;101541;-72
2021/06/28 09:06:30;;;;;;;7.60;6.90;;;;;;;21.44;35.72;101052.63;4824162;29;97599;-72
2021/06/28 09:09:02;;;;;;;8.68;7.88;;;;;;;21.50;35.47;101060.63;4808138;29;96849;-73
2021/06/28 09:11:35;;;;;;;8.52;7.43;;;;;;;21.59;35.46;101060.44;4825339;29;97618;-71
2021/06/28 09:14:05;;;;;;;8.55;7.55;;;;;;;21.65;35.25;101057.63;4820055;29;100133;-72
2021/06/28 09:16:33;;;;;;;7.90;7.25;;;;;;;21.72;35.33;101060.22;4838298;28;99594;-71
2021/06/28 09:19:04;;;;;;;8.20;7.50;;;;;;;21.80;35.22;101058.22;4823229;29;97375;-72
2021/06/28 09:21:36;;;;;;;8.30;7.47;;;;;;;21.90;35.15;101059.84;4825102;29;97823;-74
2021/06/28 09:24:09;;;;;;;7.43;6.88;;;;;;;21.93;35.01;101054.34;4822877;29;98932;-72
2021/06/28 09:26:38;;;;;;;9.85;8.95;;;;;;;22.04;34.97;101047.78;4823353;29;99339;-72
2021/06/28 09:29:08;;;;;;;8.65;7.88;;;;;;;22.13;34.54;101039.47;4824870;29;98054;-72
2021/06/28 09:31:39;;;;;;;8.55;7.70;;;;;;;22.19;34.69;101040.22;4823066;29;98019;-72
2021/06/28 09:34:14;;;;;;;8.93;8.13;;;;;;;22.24;34.43;101046.41;4840127;28;98916;-72
2021/06/28 09:36:48;;;;;;;9.55;7.90;;;;;;;22.29;34.27;101043.66;4821783;29;100690;-72
2021/06/28 09:39:18;;;;;;;16.00;14.30;;;;;;;22.35;34.35;101040.78;4823513;29;97433;-72
2021/06/28 09:41:46;;;;;;;12.38;11.27;;;;;;;22.39;34.18;101042.50;4824204;29;97775;-73
2021/06/28 09:44:14;;;;;;;11.05;7.60;;;;;;;22.42;34.11;101037.00;4823608;29;98575;-73
2021/06/28 09:46:42;;;;;;;10.15;7.82;;;;;;;22.47;34.10;101045.94;4823522;29;98592;-72
2021/06/28 09:49:15;;;;;;;7.93;7.20;;;;;;;22.46;33.92;101038.69;4824101;29;97084;-72
2021/06/28 09:51:43;;;;;;;12.35;8.15;;;;;;;22.48;34.08;101047.69;4826101;29;96926;-72
2021/06/28 09:54:17;;;;;;;15.50;12.52;;;;;;;22.54;33.77;101042.13;4823671;29;98054;-72
2021/06/28 09:56:48;;;;;;;11.48;10.30;;;;;;;22.57;33.77;101045.66;4821926;29;99339;-72
2021/06/28 09:59:20;;;;;;;11.32;10.13;;;;;;;22.61;33.85;101031.09;4825042;29;96991;-72
2021/06/28 10:01:50;;;;;;;8.25;7.53;;;;;;;22.65;33.87;101030.09;4823442;29;97411;-73
2021/06/28 10:04:41;;;;;;;9.02;7.93;;;;;;;22.67;31.97;101039.09;4831014;28;100679;-73
2021/06/28 10:07:33;;;;;;;7.93;7.32;;;;;;;22.74;33.17;101031.69;4822218;29;99117;-72
2021/06/28 10:10:28;;;;;;;8.70;7.45;;;;;;;22.80;33.29;101039.69;4823489;29;97010;-73
2021/06/28 10:13:04;;;;;;;8.13;7.50;;;;;;;22.84;33.25;101030.53;4822565;29;97971;-73
2021/06/28 10:15:34;;;;;;;11.60;10.50;;;;;;;22.88;33.44;101037.69;4813149;29;99308;-73
2021/06/28 10:18:02;;;;;;;10.10;9.23;;;;;;;22.92;33.57;101039.38;4836701;28;99821;-73
2021/06/28 10:20:32;;;;;;;8.43;7.68;;;;;;;22.95;33.38;101044.72;4823515;29;97639;-73
2021/06/28 10:23:01;;;;;;;7.82;7.03;;;;;;;22.98;33.52;101033.81;4822057;29;98561;-72
2021/06/28 10:25:30;;;;;;;8.38;7.57;;;;;;;23.02;33.34;101040.94;4822393;29;100234;-73
2021/06/28 10:28:00;;;;;;;8.38;7.57;;;;;;;23.06;33.35;101039.03;4806611;29;99683;-72
2021/06/28 10:30:31;;;;;;;8.35;7.65;;;;;;;23.08;33.65;101035.34;4823699;29;97311;-73
2021/06/28 10:33:02;;;;;;;8.70;7.82;;;;;;;23.14;33.42;101023.41;4824419;29;97086;-72
2021/06/28 10:35:33;;;;;;;8.32;7.65;;;;;;;23.18;33.27;101026.03;4821630;29;97911;-72
2021/06/28 10:38:04;;;;;;;6.15;5.75;;;;;;;23.23;33.34;101036.75;4827594;28;99105;-72
2021/06/28 10:40:57;;;;;;;7.32;6.65;;;;;;;23.27;32.88;101031.22;4826160;29;99260;-72
2021/06/28 10:43:32;;;;;;;7.97;7.18;;;;;;;23.33;33.22;101025.59;4822566;29;98412;-72
2021/06/28 10:46:01;;;;;;;11.50;10.43;;;;;;;23.36;32.92;101025.56;4823957;29;98653;-75
2021/06/28 10:48:30;;;;;;;9.38;8.57;;;;;;;23.43;32.96;101027.16;4822739;29;98248;-75
2021/06/28 10:51:01;;;;;;;8.90;8.20;;;;;;;23.48;32.88;101025.19;4825563;29;97314;-76
2021/06/28 10:54:02;;;;;;;8.35;7.43;;;;;;;23.55;32.65;101018.66;4823802;29;97439;-74
2021/06/28 10:56:42;;;;;;;7.57;6.80;;;;;;;23.64;32.50;101018.38;4822144;29;101048;-75
2021/06/28 10:59:20;;;;;;;7.25;6.65;;;;;;;23.72;32.63;101016.34;4802040;29;101660;-74
2021/06/28 11:01:49;;;;;;;6.32;5.82;;;;;;;23.78;32.57;101018.88;4820748;29;97208;-75
2021/06/28 11:04:24;;;;;;;8.18;7.47;;;;;;;23.85;32.36;101015.03;4821136;29;98172;-74
2021/06/28 11:07:04;;;;;;;10.57;9.68;;;;;;;23.93;32.44;101012.13;4823126;29;97810;-73
2021/06/28 11:09:37;;;;;;;8.93;8.15;;;;;;;24.01;32.92;101009.19;4823343;29;99266;-73
2021/06/28 11:12:07;;;;;;;7.47;6.97;;;;;;;24.07;32.62;101007.16;4810661;29;98140;-74
2021/06/28 11:14:48;;;;;;;7.93;7.22;;;;;;;24.14;32.23;101007.84;4823993;29;98004;-75
2021/06/28 11:17:20;;;;;;;5.50;5.10;;;;;;;24.21;32.41;100995.84;4831720;28;97945;-74
2021/06/28 11:20:04;;;;;;;7.47;6.88;;;;;;;24.27;32.22;100988.38;4823012;29;99332;-75
2021/06/28 11:22:48;;;;;;;6.85;6.28;;;;;;;24.34;31.75;101000.84;4838950;28;97059;-77
2021/06/28 11:25:22;;;;;;;7.57;6.90;;;;;;;24.37;31.91;100997.13;4823300;29;98037;-74
2021/06/28 11:28:18;;;;;;;7.55;6.95;;;;;;;24.38;30.49;100993.47;4819926;29;99739;-75
2021/06/28 11:31:06;;;;;;;8.00;7.38;;;;;;;24.45;31.32;100985.09;4824219;29;100095;-75
2021/06/28 11:33:46;;;;;;;7.55;6.97;;;;;;;24.52;32.00;100986.66;4823338;29;96885;-75